sensor_id;sensor_type;location;lat;lon;timestamp;pressure;altitude;pressure_sealevel;temperature;humidity
11987;BME280;6053;51.382;6.768;2023-02-18T00:01:41;101889.91;;;13.03;100.00
11987;BME280;6053;51.382;6.768;2023-02-18T00:04:11;101885.44;;;12.44;100.00
11987;BME280;6053;51.382;6.768;2023-02-18T00:06:39;101887.81;;;12.34;100.00
11987;BME280;6053;51.382;6.768;2023-02-18T00:09:09;101878.28;;;12.88;100.00
11987;BME280;6053;51.382;6.768;2023-02-18T00:11:38;101881.94;;;12.75;100.00
11987;BME280;6053;51.382;6.768;2023-02-18T00:14:10;101872.09;;;12.21;100.00
11987;BME280;6053;51.382;6.768;2023-02-18T00:16:39;101864.41;;;12.23;100.00
11987;BME280;6053;51.382;6.768;2023-02-18T00:19:13;101869.81;;;12.69;100.00
11987;BME280;6053;51.382;6.768;2023-02-18T00:21:42;101855.72;;;12.13;100.00
11987;BME280;6053;51.382;6.768;2023-02-18T00:24:13;101862.97;;;13.17;100.00
11987;BME280;6053;51.382;6.768;2023-02-18T00:26:43;101848.69;;;11.84;100.00
11987;BME280;6053;51.382;6.768;2023-02-18T00:29:12;101859.13;;;12.21;100.00
11987;BME280;6053;51.382;6.768;2023-02-18T00:31:40;101849.16;;;11.54;100.00
11987;BME280;6053;51.382;6.768;2023-02-18T00:34:12;101852.09;;;12.12;100.00
11987;BME280;6053;51.382;6.768;2023-02-18T00:36:40;101857.63;;;11.59;100.00
11987;BME280;6053;51.382;6.768;2023-02-18T00:39:11;101854.84;;;11.39;100.00
11987;BME280;6053;51.382;6.768;2023-02-18T00:41:39;101853.78;;;11.53;100.00
11987;BME280;6053;51.382;6.768;2023-02-18T00:44:08;101842.31;;;11.30;100.00
11987;BME280;6053;51.382;6.768;2023-02-18T00:46:37;101841.72;;;12.01;100.00
11987;BME280;6053;51.382;6.768;2023-02-18T00:49:07;101837.22;;;12.07;100.00
11987;BME280;6053;51.382;6.768;2023-02-18T00:51:37;101840.84;;;11.80;100.00
11987;BME280;6053;51.382;6.768;2023-02-18T00:54:05;101829.81;;;11.94;100.00
11987;BME280;6053;51.382;6.768;2023-02-18T00:56:34;101828.31;;;11.85;100.00
11987;BME280;6053;51.382;6.768;2023-02-18T00:59:03;101823.81;;;11.84;100.00
11987;BME280;6053;51.382;6.768;2023-02-18T01:01:31;101813.22;;;11.67;100.00
11987;BME280;6053;51.382;6.768;2023-02-18T01:04:00;101821.50;;;11.74;100.00
11987;BME280;6053;51.382;6.768;2023-02-18T01:06:29;101818.09;;;11.32;100.00
11987;BME280;6053;51.382;6.768;2023-02-18T01:08:58;101814.91;;;11.42;100.00
11987;BME280;6053;51.382;6.768;2023-02-18T01:11:27;101816.81;;;11.81;100.00
11987;BME280;6053;51.382;6.768;2023-02-18T01:13:55;101816.00;;;11.87;100.00
11987;BME280;6053;51.382;6.768;2023-02-18T01:16:24;101824.66;;;11.18;100.00
11987;BME280;6053;51.382;6.768;2023-02-18T01:18:52;101815.97;;;11.34;100.00
11987;BME280;6053;51.382;6.768;2023-02-18T01:21:21;101818.31;;;11.50;100.00
11987;BME280;6053;51.382;6.768;2023-02-18T01:23:49;101820.44;;;12.01;100.00
11987;BME280;6053;51.382;6.768;2023-02-18T01:26:19;101814.25;;;11.60;100.00
11987;BME280;6053;51.382;6.768;2023-02-18T01:28:47;101808.97;;;11.65;100.00
11987;BME280;6053;51.382;6.768;2023-02-18T01:31:16;101821.09;;;11.50;100.00
11987;BME280;6053;51.382;6.768;2023-02-18T01:33:44;101809.81;;;11.45;100.00
11987;BME280;6053;51.382;6.768;2023-02-18T01:36:13;101802.59;;;11.38;100.00
11987;BME280;6053;51.382;6.768;2023-02-18T01:38:41;101790.47;;;11.65;100.00
11987;BME280;6053;51.382;6.768;2023-02-18T01:41:10;101785.59;;;11.47;100.00
11987;BME280;6053;51.382;6.768;2023-02-18T01:43:40;101800.25;;;11.74;100.00
11987;BME280;6053;51.382;6.768;2023-02-18T01:46:17;101778.75;;;11.76;100.00
11987;BME280;6053;51.382;6.768;2023-02-18T01:48:50;101786.63;;;11.53;100.00
11987;BME280;6053;51.382;6.768;2023-02-18T01:51:25;101778.78;;;11.37;100.00
11987;BME280;6053;51.382;6.768;2023-02-18T01:53:58;101780.47;;;11.84;100.00
11987;BME280;6053;51.382;6.768;2023-02-18T01:56:31;101782.59;;;11.55;100.00
11987;BME280;6053;51.382;6.768;2023-02-18T01:59:07;101773.34;;;12.21;100.00
11987;BME280;6053;51.382;6.768;2023-02-18T02:01:39;101780.25;;;12.50;100.00
11987;BME280;6053;51.382;6.768;2023-02-18T02:04:10;101776.81;;;11.84;100.00
11987;BME280;6053;51.382;6.768;2023-02-18T02:06:39;101771.34;;;11.37;100.00
11987;BME280;6053;51.382;6.768;2023-02-18T02:09:11;101775.13;;;11.96;100.00
11987;BME280;6053;51.382;6.768;2023-02-18T02:12:10;101763.53;;;12.32;100.00
11987;BME280;6053;51.382;6.768;2023-02-18T02:15:19;101761.50;;;12.08;100.00
11987;BME280;6053;51.382;6.768;2023-02-18T02:18:08;101760.41;;;12.60;100.00
11987;BME280;6053;51.382;6.768;2023-02-18T02:21:22;101759.19;;;11.78;100.00
11987;BME280;6053;51.382;6.768;2023-02-18T02:24:46;101761.78;;;11.33;100.00
11987;BME280;6053;51.382;6.768;2023-02-18T02:27:25;101754.56;;;11.39;100.00
11987;BME280;6053;51.382;6.768;2023-02-18T02:33:48;101744.94;;;11.74;100.00
11987;BME280;6053;51.382;6.768;2023-02-18T02:36:29;101737.28;;;11.76;100.00
11987;BME280;6053;51.382;6.768;2023-02-18T02:39:07;101747.53;;;11.56;100.00
11987;BME280;6053;51.382;6.768;2023-02-18T02:41:48;101740.97;;;11.37;100.00
11987;BME280;6053;51.382;6.768;2023-02-18T02:44:23;101747.13;;;11.26;100.00
11987;BME280;6053;51.382;6.768;2023-02-18T02:47:00;101734.78;;;11.42;100.00
11987;BME280;6053;51.382;6.768;2023-02-18T02:49:37;101736.38;;;12.02;100.00
11987;BME280;6053;51.382;6.768;2023-02-18T02:52:14;101729.88;;;11.70;100.00
11987;BME280;6053;51.382;6.768;2023-02-18T02:54:44;101724.41;;;11.17;100.00
11987;BME280;6053;51.382;6.768;2023-02-18T02:57:48;101728.72;;;12.11;100.00
11987;BME280;6053;51.382;6.768;2023-02-18T03:00:20;101734.31;;;11.85;100.00
11987;BME280;6053;51.382;6.768;2023-02-18T03:03:21;101718.88;;;11.17;100.00
11987;BME280;6053;51.382;6.768;2023-02-18T03:06:10;101723.09;;;11.40;100.00
11987;BME280;6053;51.382;6.768;2023-02-18T03:08:52;101718.38;;;11.60;100.00
11987;BME280;6053;51.382;6.768;2023-02-18T03:11:29;101699.25;;;11.59;100.00
11987;BME280;6053;51.382;6.768;2023-02-18T03:14:09;101703.34;;;10.96;100.00
11987;BME280;6053;51.382;6.768;2023-02-18T03:16:46;101700.38;;;11.38;100.00
11987;BME280;6053;51.382;6.768;2023-02-18T03:19:23;101705.81;;;11.91;100.00
11987;BME280;6053;51.382;6.768;2023-02-18T03:21:56;101691.66;;;12.19;100.00
11987;BME280;6053;51.382;6.768;2023-02-18T03:24:31;101687.06;;;11.93;100.00
11987;BME280;6053;51.382;6.768;2023-02-18T03:27:05;101684.31;;;11.79;100.00
11987;BME280;6053;51.382;6.768;2023-02-18T03:29:36;101688.63;;;11.55;100.00
11987;BME280;6053;51.382;6.768;2023-02-18T03:32:07;101680.78;;;11.52;100.00
11987;BME280;6053;51.382;6.768;2023-02-18T03:34:43;101686.34;;;11.19;100.00
11987;BME280;6053;51.382;6.768;2023-02-18T03:37:13;101672.88;;;11.63;100.00
11987;BME280;6053;51.382;6.768;2023-02-18T03:39:48;101666.56;;;11.42;100.00
11987;BME280;6053;51.382;6.768;2023-02-18T03:42:18;101660.94;;;12.27;100.00
11987;BME280;6053;51.382;6.768;2023-02-18T03:44:46;101655.06;;;12.17;100.00
11987;BME280;6053;51.382;6.768;2023-02-18T03:47:14;101650.59;;;11.57;100.00
11987;BME280;6053;51.382;6.768;2023-02-18T03:49:43;101650.84;;;12.46;100.00
11987;BME280;6053;51.382;6.768;2023-02-18T03:52:11;101655.06;;;12.17;100.00
11987;BME280;6053;51.382;6.768;2023-02-18T03:54:40;101648.59;;;11.91;100.00
11987;BME280;6053;51.382;6.768;2023-02-18T03:57:10;101637.75;;;11.90;100.00
11987;BME280;6053;51.382;6.768;2023-02-18T03:59:39;101639.28;;;12.56;100.00
11987;BME280;6053;51.382;6.768;2023-02-18T04:02:07;101644.22;;;11.57;100.00
11987;BME280;6053;51.382;6.768;2023-02-18T04:04:36;101648.53;;;11.13;100.00
11987;BME280;6053;51.382;6.768;2023-02-18T04:07:04;101641.06;;;11.47;100.00
11987;BME280;6053;51.382;6.768;2023-02-18T04:09:32;101630.91;;;11.27;100.00
11987;BME280;6053;51.382;6.768;2023-02-18T04:12:01;101625.00;;;11.89;100.00
11987;BME280;6053;51.382;6.768;2023-02-18T04:14:30;101628.31;;;12.11;100.00
11987;BME280;6053;51.382;6.768;2023-02-18T04:16:59;101628.94;;;12.06;100.00
11987;BME280;6053;51.382;6.768;2023-02-18T04:19:27;101627.28;;;11.40;100.00
11987;BME280;6053;51.382;6.768;2023-02-18T04:21:55;101623.88;;;11.25;100.00
11987;BME280;6053;51.382;6.768;2023-02-18T04:24:24;101613.13;;;11.75;100.00
11987;BME280;6053;51.382;6.768;2023-02-18T04:26:52;101615.63;;;11.83;100.00
11987;BME280;6053;51.382;6.768;2023-02-18T04:29:20;101621.06;;;11.51;100.00
11987;BME280;6053;51.382;6.768;2023-02-18T04:31:50;101613.53;;;10.74;100.00
11987;BME280;6053;51.382;6.768;2023-02-18T04:34:19;101613.19;;;11.55;100.00
11987;BME280;6053;51.382;6.768;2023-02-18T04:36:47;101618.22;;;11.85;100.00
11987;BME280;6053;51.382;6.768;2023-02-18T04:39:15;101605.22;;;11.20;100.00
11987;BME280;6053;51.382;6.768;2023-02-18T04:41:44;101611.47;;;11.61;100.00
11987;BME280;6053;51.382;6.768;2023-02-18T04:44:12;101598.97;;;12.03;100.00
11987;BME280;6053;51.382;6.768;2023-02-18T04:46:41;101600.16;;;11.04;100.00
11987;BME280;6053;51.382;6.768;2023-02-18T04:49:10;101593.28;;;11.26;100.00
11987;BME280;6053;51.382;6.768;2023-02-18T04:51:39;101599.94;;;11.77;100.00
11987;BME280;6053;51.382;6.768;2023-02-18T04:54:07;101596.50;;;11.23;100.00
11987;BME280;6053;51.382;6.768;2023-02-18T04:56:35;101599.53;;;12.18;100.00
11987;BME280;6053;51.382;6.768;2023-02-18T04:59:04;101585.56;;;12.38;100.00
11987;BME280;6053;51.382;6.768;2023-02-18T05:01:32;101581.19;;;11.27;100.00
11987;BME280;6053;51.382;6.768;2023-02-18T05:04:01;101581.16;;;11.34;100.00
11987;BME280;6053;51.382;6.768;2023-02-18T05:06:31;101578.50;;;10.94;100.00
11987;BME280;6053;51.382;6.768;2023-02-18T05:08:59;101577.22;;;10.90;100.00
11987;BME280;6053;51.382;6.768;2023-02-18T05:11:28;101567.63;;;10.99;100.00
11987;BME280;6053;51.382;6.768;2023-02-18T05:13:56;101570.78;;;11.23;100.00
11987;BME280;6053;51.382;6.768;2023-02-18T05:16:24;101567.88;;;10.84;100.00
11987;BME280;6053;51.382;6.768;2023-02-18T05:18:53;101562.56;;;10.83;100.00
11987;BME280;6053;51.382;6.768;2023-02-18T05:21:21;101557.69;;;10.92;100.00
11987;BME280;6053;51.382;6.768;2023-02-18T05:23:51;101557.22;;;11.15;100.00
11987;BME280;6053;51.382;6.768;2023-02-18T05:26:19;101559.75;;;11.09;100.00
11987;BME280;6053;51.382;6.768;2023-02-18T05:28:48;101549.22;;;10.67;100.00
11987;BME280;6053;51.382;6.768;2023-02-18T05:31:16;101536.84;;;10.96;100.00
11987;BME280;6053;51.382;6.768;2023-02-18T05:33:45;101543.28;;;10.50;100.00
11987;BME280;6053;51.382;6.768;2023-02-18T05:36:13;101538.38;;;10.85;100.00
11987;BME280;6053;51.382;6.768;2023-02-18T05:38:41;101545.59;;;10.73;100.00
11987;BME280;6053;51.382;6.768;2023-02-18T05:41:11;101526.91;;;10.88;100.00
11987;BME280;6053;51.382;6.768;2023-02-18T05:43:39;101533.09;;;10.70;100.00
11987;BME280;6053;51.382;6.768;2023-02-18T05:46:22;101533.88;;;11.11;100.00
11987;BME280;6053;51.382;6.768;2023-02-18T05:48:50;101531.75;;;10.93;100.00
11987;BME280;6053;51.382;6.768;2023-02-18T05:51:19;101514.63;;;10.64;100.00
11987;BME280;6053;51.382;6.768;2023-02-18T05:53:47;101520.56;;;10.74;100.00
11987;BME280;6053;51.382;6.768;2023-02-18T05:56:17;101506.53;;;10.76;100.00
11987;BME280;6053;51.382;6.768;2023-02-18T05:58:45;101505.28;;;10.58;100.00
11987;BME280;6053;51.382;6.768;2023-02-18T06:01:14;101497.66;;;10.60;100.00
11987;BME280;6053;51.382;6.768;2023-02-18T06:03:42;101511.63;;;10.66;100.00
11987;BME280;6053;51.382;6.768;2023-02-18T06:06:10;101514.81;;;10.76;100.00
11987;BME280;6053;51.382;6.768;2023-02-18T06:08:39;101514.97;;;11.01;100.00
11987;BME280;6053;51.382;6.768;2023-02-18T06:11:07;101509.53;;;10.68;100.00
11987;BME280;6053;51.382;6.768;2023-02-18T06:13:37;101507.34;;;10.90;100.00
11987;BME280;6053;51.382;6.768;2023-02-18T06:16:06;101506.72;;;11.46;100.00
11987;BME280;6053;51.382;6.768;2023-02-18T06:18:35;101511.44;;;10.74;100.00
11987;BME280;6053;51.382;6.768;2023-02-18T06:21:04;101504.91;;;11.26;100.00
11987;BME280;6053;51.382;6.768;2023-02-18T06:23:32;101507.56;;;10.88;100.00
11987;BME280;6053;51.382;6.768;2023-02-18T06:26:00;101503.81;;;10.49;100.00
11987;BME280;6053;51.382;6.768;2023-02-18T06:28:29;101505.53;;;10.30;100.00
11987;BME280;6053;51.382;6.768;2023-02-18T06:30:58;101495.38;;;11.16;100.00
11987;BME280;6053;51.382;6.768;2023-02-18T06:33:27;101500.38;;;10.80;100.00
11987;BME280;6053;51.382;6.768;2023-02-18T06:35:58;101506.53;;;10.62;100.00
11987;BME280;6053;51.382;6.768;2023-02-18T06:38:27;101496.81;;;10.47;100.00
11987;BME280;6053;51.382;6.768;2023-02-18T06:40:55;101505.25;;;10.85;100.00
11987;BME280;6053;51.382;6.768;2023-02-18T06:43:24;101501.91;;;10.30;100.00
11987;BME280;6053;51.382;6.768;2023-02-18T06:45:52;101505.72;;;10.29;100.00
11987;BME280;6053;51.382;6.768;2023-02-18T06:48:22;101518.44;;;10.23;100.00
11987;BME280;6053;51.382;6.768;2023-02-18T06:50:51;101510.19;;;10.30;100.00
11987;BME280;6053;51.382;6.768;2023-02-18T06:53:19;101516.97;;;10.47;100.00
11987;BME280;6053;51.382;6.768;2023-02-18T06:55:48;101520.97;;;10.78;100.00
11987;BME280;6053;51.382;6.768;2023-02-18T06:58:16;101519.06;;;10.78;100.00
11987;BME280;6053;51.382;6.768;2023-02-18T07:00:45;101521.84;;;10.58;100.00
11987;BME280;6053;51.382;6.768;2023-02-18T07:03:14;101518.25;;;10.31;100.00
11987;BME280;6053;51.382;6.768;2023-02-18T07:05:44;101519.72;;;10.54;100.00
11987;BME280;6053;51.382;6.768;2023-02-18T07:08:12;101509.09;;;10.64;100.00
11987;BME280;6053;51.382;6.768;2023-02-18T07:10:40;101510.38;;;10.55;100.00
11987;BME280;6053;51.382;6.768;2023-02-18T07:13:09;101503.59;;;10.44;100.00
11987;BME280;6053;51.382;6.768;2023-02-18T07:15:37;101506.78;;;10.48;100.00
11987;BME280;6053;51.382;6.768;2023-02-18T07:18:06;101500.44;;;10.47;100.00
11987;BME280;6053;51.382;6.768;2023-02-18T07:20:34;101501.66;;;10.78;100.00
11987;BME280;6053;51.382;6.768;2023-02-18T07:23:04;101509.28;;;10.69;100.00
11987;BME280;6053;51.382;6.768;2023-02-18T07:25:32;101512.97;;;10.36;100.00
11987;BME280;6053;51.382;6.768;2023-02-18T07:28:00;101508.25;;;10.77;100.00
11987;BME280;6053;51.382;6.768;2023-02-18T07:30:29;101525.66;;;10.71;100.00
11987;BME280;6053;51.382;6.768;2023-02-18T07:32:57;101530.34;;;10.64;100.00
11987;BME280;6053;51.382;6.768;2023-02-18T07:35:27;101528.09;;;11.12;100.00
11987;BME280;6053;51.382;6.768;2023-02-18T07:37:55;101524.09;;;11.60;100.00
11987;BME280;6053;51.382;6.768;2023-02-18T07:40:26;101521.28;;;11.21;100.00
11987;BME280;6053;51.382;6.768;2023-02-18T07:42:54;101547.66;;;11.11;100.00
11987;BME280;6053;51.382;6.768;2023-02-18T07:45:23;101546.44;;;10.93;100.00
11987;BME280;6053;51.382;6.768;2023-02-18T07:47:52;101557.50;;;10.87;100.00
11987;BME280;6053;51.382;6.768;2023-02-18T07:50:20;101539.66;;;10.76;100.00
11987;BME280;6053;51.382;6.768;2023-02-18T07:52:48;101546.00;;;10.17;100.00
11987;BME280;6053;51.382;6.768;2023-02-18T07:55:17;101547.09;;;10.35;100.00
11987;BME280;6053;51.382;6.768;2023-02-18T07:57:46;101542.00;;;10.52;100.00
11987;BME280;6053;51.382;6.768;2023-02-18T08:00:26;101543.28;;;10.50;100.00
11987;BME280;6053;51.382;6.768;2023-02-18T08:02:54;101537.78;;;10.70;100.00
11987;BME280;6053;51.382;6.768;2023-02-18T08:05:23;101555.59;;;10.60;100.00
11987;BME280;6053;51.382;6.768;2023-02-18T08:07:51;101562.31;;;11.18;100.00
11987;BME280;6053;51.382;6.768;2023-02-18T08:10:19;101569.81;;;10.51;100.00
11987;BME280;6053;51.382;6.768;2023-02-18T08:12:49;101569.59;;;10.46;100.00
11987;BME280;6053;51.382;6.768;2023-02-18T08:15:17;101575.09;;;10.46;100.00
11987;BME280;6053;51.382;6.768;2023-02-18T08:17:46;101574.91;;;10.47;100.00
11987;BME280;6053;51.382;6.768;2023-02-18T08:20:14;101570.22;;;10.41;100.00
11987;BME280;6053;51.382;6.768;2023-02-18T08:22:43;101563.44;;;10.50;100.00
11987;BME280;6053;51.382;6.768;2023-02-18T08:25:11;101559.56;;;10.18;100.00
11987;BME280;6053;51.382;6.768;2023-02-18T08:27:56;101572.25;;;10.12;100.00
11987;BME280;6053;51.382;6.768;2023-02-18T08:30:24;101572.56;;;9.63;100.00
11987;BME280;6053;51.382;6.768;2023-02-18T08:32:53;101555.72;;;10.06;100.00
11987;BME280;6053;51.382;6.768;2023-02-18T08:35:22;101575.50;;;10.36;100.00
11987;BME280;6053;51.382;6.768;2023-02-18T08:37:50;101570.13;;;9.95;100.00
11987;BME280;6053;51.382;6.768;2023-02-18T08:40:20;101560.22;;;10.20;100.00
11987;BME280;6053;51.382;6.768;2023-02-18T08:42:49;101558.34;;;10.60;100.00
11987;BME280;6053;51.382;6.768;2023-02-18T08:45:18;101568.09;;;10.30;100.00
11987;BME280;6053;51.382;6.768;2023-02-18T08:47:47;101563.56;;;10.09;100.00
11987;BME280;6053;51.382;6.768;2023-02-18T08:50:36;101567.53;;;9.80;100.00
11987;BME280;6053;51.382;6.768;2023-02-18T08:53:04;101558.94;;;10.09;100.00
11987;BME280;6053;51.382;6.768;2023-02-18T08:55:33;101556.63;;;10.20;100.00
11987;BME280;6053;51.382;6.768;2023-02-18T08:58:04;101558.91;;;10.23;100.00
11987;BME280;6053;51.382;6.768;2023-02-18T09:00:37;101567.47;;;10.61;100.00
11987;BME280;6053;51.382;6.768;2023-02-18T09:03:06;101557.63;;;10.12;100.00
11987;BME280;6053;51.382;6.768;2023-02-18T09:05:34;101558.78;;;10.57;100.00
11987;BME280;6053;51.382;6.768;2023-02-18T09:08:03;101560.25;;;10.87;100.00
11987;BME280;6053;51.382;6.768;2023-02-18T09:10:32;101560.41;;;10.19;100.00
11987;BME280;6053;51.382;6.768;2023-02-18T09:13:00;101554.03;;;10.18;100.00
11987;BME280;6053;51.382;6.768;2023-02-18T09:15:29;101552.13;;;10.19;100.00
11987;BME280;6053;51.382;6.768;2023-02-18T09:17:59;101552.13;;;10.12;100.00
11987;BME280;6053;51.382;6.768;2023-02-18T09:20:28;101546.41;;;10.13;100.00
11987;BME280;6053;51.382;6.768;2023-02-18T09:22:56;101551.75;;;10.28;100.00
11987;BME280;6053;51.382;6.768;2023-02-18T09:25:26;101550.19;;;10.06;100.00
11987;BME280;6053;51.382;6.768;2023-02-18T09:27:55;101562.38;;;10.51;100.00
11987;BME280;6053;51.382;6.768;2023-02-18T09:30:23;101543.91;;;10.32;100.00
11987;BME280;6053;51.382;6.768;2023-02-18T09:32:51;101555.53;;;10.21;100.00
11987;BME280;6053;51.382;6.768;2023-02-18T09:35:21;101548.59;;;10.45;100.00
11987;BME280;6053;51.382;6.768;2023-02-18T09:37:49;101552.00;;;10.60;100.00
11987;BME280;6053;51.382;6.768;2023-02-18T09:40:26;101563.66;;;10.55;100.00
11987;BME280;6053;51.382;6.768;2023-02-18T09:42:57;101561.94;;;10.34;100.00
11987;BME280;6053;51.382;6.768;2023-02-18T09:45:27;101548.16;;;10.54;100.00
11987;BME280;6053;51.382;6.768;2023-02-18T09:47:56;101549.44;;;10.45;100.00
11987;BME280;6053;51.382;6.768;2023-02-18T09:50:29;101548.34;;;10.53;100.00
11987;BME280;6053;51.382;6.768;2023-02-18T09:53:00;101534.59;;;10.46;100.00
11987;BME280;6053;51.382;6.768;2023-02-18T09:55:32;101543.69;;;10.87;100.00
11987;BME280;6053;51.382;6.768;2023-02-18T09:58:05;101541.56;;;10.49;100.00
11987;BME280;6053;51.382;6.768;2023-02-18T10:00:37;101545.56;;;10.86;100.00
11987;BME280;6053;51.382;6.768;2023-02-18T10:03:12;101531.59;;;10.54;100.00
11987;BME280;6053;51.382;6.768;2023-02-18T10:05:54;101533.28;;;10.55;100.00
11987;BME280;6053;51.382;6.768;2023-02-18T10:08:26;101539.88;;;10.74;100.00
11987;BME280;6053;51.382;6.768;2023-02-18T10:10:55;101543.50;;;10.48;100.00
11987;BME280;6053;51.382;6.768;2023-02-18T10:13:27;101536.41;;;10.06;100.00
11987;BME280;6053;51.382;6.768;2023-02-18T10:15:55;101542.22;;;10.31;100.00
11987;BME280;6053;51.382;6.768;2023-02-18T10:18:28;101543.28;;;10.70;100.00
11987;BME280;6053;51.382;6.768;2023-02-18T10:21:07;101530.53;;;10.69;100.00
11987;BME280;6053;51.382;6.768;2023-02-18T10:23:39;101545.16;;;10.89;100.00
11987;BME280;6053;51.382;6.768;2023-02-18T10:26:15;101540.50;;;10.76;100.00
11987;BME280;6053;51.382;6.768;2023-02-18T10:28:45;101554.75;;;10.60;100.00
11987;BME280;6053;51.382;6.768;2023-02-18T10:31:19;101549.22;;;10.47;100.00
11987;BME280;6053;51.382;6.768;2023-02-18T10:33:57;101549.63;;;10.83;100.00
11987;BME280;6053;51.382;6.768;2023-02-18T10:36:34;101552.81;;;10.94;100.00
11987;BME280;6053;51.382;6.768;2023-02-18T10:39:43;101563.63;;;10.42;100.00
11987;BME280;6053;51.382;6.768;2023-02-18T10:42:28;101566.19;;;10.77;100.00
11987;BME280;6053;51.382;6.768;2023-02-18T10:45:12;101578.06;;;10.37;100.00
11987;BME280;6053;51.382;6.768;2023-02-18T10:47:56;101573.81;;;10.28;100.00
11987;BME280;6053;51.382;6.768;2023-02-18T10:50:31;101573.34;;;10.18;100.00
11987;BME280;6053;51.382;6.768;2023-02-18T10:53:11;101575.69;;;10.14;100.00
11987;BME280;6053;51.382;6.768;2023-02-18T10:55:43;101582.69;;;10.24;100.00
11987;BME280;6053;51.382;6.768;2023-02-18T10:58:33;101580.41;;;10.80;100.00
11987;BME280;6053;51.382;6.768;2023-02-18T11:01:04;101575.97;;;10.40;100.00
11987;BME280;6053;51.382;6.768;2023-02-18T11:03:41;101581.50;;;9.78;100.00
11987;BME280;6053;51.382;6.768;2023-02-18T11:06:21;101578.97;;;9.70;100.00
11987;BME280;6053;51.382;6.768;2023-02-18T11:08:54;101565.91;;;10.12;100.00
11987;BME280;6053;51.382;6.768;2023-02-18T11:11:27;101584.38;;;10.18;100.00
11987;BME280;6053;51.382;6.768;2023-02-18T11:14:00;101580.19;;;10.55;100.00
11987;BME280;6053;51.382;6.768;2023-02-18T11:16:39;101599.97;;;9.84;100.00
11987;BME280;6053;51.382;6.768;2023-02-18T11:19:31;101590.03;;;9.83;100.00
11987;BME280;6053;51.382;6.768;2023-02-18T11:22:12;101592.31;;;9.73;100.00
11987;BME280;6053;51.382;6.768;2023-02-18T11:24:43;101593.38;;;9.79;100.00
11987;BME280;6053;51.382;6.768;2023-02-18T11:27:24;101585.50;;;10.37;100.00
11987;BME280;6053;51.382;6.768;2023-02-18T11:29:58;101577.34;;;10.09;100.00
11987;BME280;6053;51.382;6.768;2023-02-18T11:32:28;101583.69;;;9.89;100.00
11987;BME280;6053;51.382;6.768;2023-02-18T11:34:57;101573.91;;;9.87;100.00
11987;BME280;6053;51.382;6.768;2023-02-18T11:37:26;101579.22;;;9.95;100.00
11987;BME280;6053;51.382;6.768;2023-02-18T11:39:56;101573.81;;;10.28;100.00
11987;BME280;6053;51.382;6.768;2023-02-18T11:42:25;101586.09;;;10.26;100.00
11987;BME280;6053;51.382;6.768;2023-02-18T11:44:56;101579.84;;;9.84;100.00
11987;BME280;6053;51.382;6.768;2023-02-18T11:47:28;101586.47;;;10.03;100.00
11987;BME280;6053;51.382;6.768;2023-02-18T11:50:05;101582.09;;;10.35;100.00
11987;BME280;6053;51.382;6.768;2023-02-18T11:52:43;101580.13;;;11.22;100.00
11987;BME280;6053;51.382;6.768;2023-02-18T11:55:18;101581.38;;;11.26;100.00
11987;BME280;6053;51.382;6.768;2023-02-18T11:57:52;101584.03;;;10.41;100.00
11987;BME280;6053;51.382;6.768;2023-02-18T12:00:35;101578.25;;;10.29;100.00
11987;BME280;6053;51.382;6.768;2023-02-18T12:03:12;101575.47;;;10.23;100.00
11987;BME280;6053;51.382;6.768;2023-02-18T12:05:44;101573.00;;;10.74;100.00
11987;BME280;6053;51.382;6.768;2023-02-18T12:08:18;101572.94;;;10.21;100.00
11987;BME280;6053;51.382;6.768;2023-02-18T12:10:51;101568.66;;;10.12;100.00
11987;BME280;6053;51.382;6.768;2023-02-18T12:13:25;101577.03;;;10.65;100.00
11987;BME280;6053;51.382;6.768;2023-02-18T12:16:04;101580.00;;;10.70;100.00
11987;BME280;6053;51.382;6.768;2023-02-18T12:18:59;101565.13;;;10.91;100.00
11987;BME280;6053;51.382;6.768;2023-02-18T12:21:41;101560.25;;;10.93;100.00
11987;BME280;6053;51.382;6.768;2023-02-18T12:27:16;101563.03;;;10.67;100.00
11987;BME280;6053;51.382;6.768;2023-02-18T12:30:06;101565.38;;;10.70;100.00
11987;BME280;6053;51.382;6.768;2023-02-18T12:32:48;101568.97;;;10.77;100.00
11987;BME280;6053;51.382;6.768;2023-02-18T12:35:39;101565.44;;;11.79;100.00
11987;BME280;6053;51.382;6.768;2023-02-18T12:38:36;101562.38;;;10.58;100.00
11987;BME280;6053;51.382;6.768;2023-02-18T12:41:31;101568.69;;;10.25;100.00
11987;BME280;6053;51.382;6.768;2023-02-18T12:44:18;101561.03;;;11.20;100.00
11987;BME280;6053;51.382;6.768;2023-02-18T12:47:14;101564.56;;;11.92;100.00
11987;BME280;6053;51.382;6.768;2023-02-18T12:50:30;101561.28;;;11.64;100.00
11987;BME280;6053;51.382;6.768;2023-02-18T12:53:37;101567.63;;;10.99;100.00
11987;BME280;6053;51.382;6.768;2023-02-18T12:56:40;101565.09;;;11.04;100.00
11987;BME280;6053;51.382;6.768;2023-02-18T12:59:35;101557.25;;;10.88;100.00
11987;BME280;6053;51.382;6.768;2023-02-18T13:02:27;101557.22;;;11.15;100.00
11987;BME280;6053;51.382;6.768;2023-02-18T13:05:08;101549.66;;;10.64;100.00
11987;BME280;6053;51.382;6.768;2023-02-18T13:07:54;101566.94;;;11.37;100.00
11987;BME280;6053;51.382;6.768;2023-02-18T13:10:50;101552.47;;;11.35;100.00
11987;BME280;6053;51.382;6.768;2023-02-18T13:13:24;101561.72;;;10.69;100.00
11987;BME280;6053;51.382;6.768;2023-02-18T13:15:58;101563.75;;;11.78;100.00
11987;BME280;6053;51.382;6.768;2023-02-18T13:18:33;101568.94;;;10.97;100.00
11987;BME280;6053;51.382;6.768;2023-02-18T13:21:05;101567.88;;;10.84;100.00
11987;BME280;6053;51.382;6.768;2023-02-18T13:23:38;101562.94;;;11.13;100.00
11987;BME280;6053;51.382;6.768;2023-02-18T13:26:10;101559.31;;;11.84;100.00
11987;BME280;6053;51.382;6.768;2023-02-18T13:28:48;101551.69;;;11.66;100.00